sensor_id;sensor_type;location;lat;lon;timestamp;pressure;altitude;pressure_sealevel;temperature;humidity
20971;BME280;10644;48.834;10.088;2023-04-27T00:00:42;96758.53;;;13.45;45.19
20971;BME280;10644;48.834;10.088;2023-04-27T00:03:08;96758.66;;;13.29;46.00
20971;BME280;10644;48.834;10.088;2023-04-27T00:05:34;96748.50;;;13.40;45.77
20971;BME280;10644;48.834;10.088;2023-04-27T00:08:00;96746.91;;;13.52;46.17
20971;BME280;10644;48.834;10.088;2023-04-27T00:10:26;96753.19;;;13.60;45.98
20971;BME280;10644;48.834;10.088;2023-04-27T00:12:51;96743.94;;;13.57;45.69
20971;BME280;10644;48.834;10.088;2023-04-27T00:15:17;96743.09;;;13.57;45.84
20971;BME280;10644;48.834;10.088;2023-04-27T00:17:42;96736.41;;;13.54;46.17
20971;BME280;10644;48.834;10.088;2023-04-27T00:20:08;96734.84;;;13.52;45.93
20971;BME280;10644;48.834;10.088;2023-04-27T00:22:37;96734.25;;;13.61;45.99
20971;BME280;10644;48.834;10.088;2023-04-27T00:25:03;96734.66;;;13.55;46.30
20971;BME280;10644;48.834;10.088;2023-04-27T00:27:28;96733.81;;;13.42;46.50
20971;BME280;10644;48.834;10.088;2023-04-27T00:29:54;96743.44;;;13.12;47.52
20971;BME280;10644;48.834;10.088;2023-04-27T00:32:21;96726.84;;;13.04;47.50
20971;BME280;10644;48.834;10.088;2023-04-27T00:34:47;96728.41;;;13.06;47.59
20971;BME280;10644;48.834;10.088;2023-04-27T00:37:12;96726.38;;;13.11;47.42
20971;BME280;10644;48.834;10.088;2023-04-27T00:39:37;96722.34;;;13.07;47.25
20971;BME280;10644;48.834;10.088;2023-04-27T00:42:03;96720.84;;;13.17;46.46
20971;BME280;10644;48.834;10.088;2023-04-27T00:44:28;96724.66;;;13.24;46.19
20971;BME280;10644;48.834;10.088;2023-04-27T00:46:54;96712.47;;;13.28;46.18
20971;BME280;10644;48.834;10.088;2023-04-27T00:49:20;96712.34;;;13.29;45.68
20971;BME280;10644;48.834;10.088;2023-04-27T00:51:47;96711.63;;;13.27;45.71
20971;BME280;10644;48.834;10.088;2023-04-27T00:54:18;96717.00;;;13.37;45.85
20971;BME280;10644;48.834;10.088;2023-04-27T00:56:44;96725.59;;;12.97;46.94
20971;BME280;10644;48.834;10.088;2023-04-27T00:59:10;96715.03;;;12.87;47.72
20971;BME280;10644;48.834;10.088;2023-04-27T01:01:35;96716.78;;;13.01;46.86
20971;BME280;10644;48.834;10.088;2023-04-27T01:04:01;96721.06;;;13.14;46.65
20971;BME280;10644;48.834;10.088;2023-04-27T01:06:26;96716.16;;;13.24;46.85
20971;BME280;10644;48.834;10.088;2023-04-27T01:08:56;96728.22;;;13.36;46.66
20971;BME280;10644;48.834;10.088;2023-04-27T01:11:22;96732.34;;;13.38;46.67
20971;BME280;10644;48.834;10.088;2023-04-27T01:13:47;96725.56;;;13.37;46.29
20971;BME280;10644;48.834;10.088;2023-04-27T01:16:13;96718.03;;;13.34;46.51
20971;BME280;10644;48.834;10.088;2023-04-27T01:18:38;96725.94;;;13.31;46.45
20971;BME280;10644;48.834;10.088;2023-04-27T01:21:05;96718.16;;;12.92;47.24
20971;BME280;10644;48.834;10.088;2023-04-27T01:23:31;96732.03;;;12.76;47.37
20971;BME280;10644;48.834;10.088;2023-04-27T01:25:56;96721.31;;;12.69;47.45
20971;BME280;10644;48.834;10.088;2023-04-27T01:28:22;96725.88;;;12.78;46.79
20971;BME280;10644;48.834;10.088;2023-04-27T01:30:47;96732.66;;;12.93;46.75
20971;BME280;10644;48.834;10.088;2023-04-27T01:33:13;96732.66;;;12.93;46.26
20971;BME280;10644;48.834;10.088;2023-04-27T01:35:38;96733.97;;;12.86;46.61
20971;BME280;10644;48.834;10.088;2023-04-27T01:38:04;96732.03;;;12.90;46.83
20971;BME280;10644;48.834;10.088;2023-04-27T01:40:29;96715.03;;;12.87;46.42
20971;BME280;10644;48.834;10.088;2023-04-27T01:42:54;96743.13;;;13.04;46.00
20971;BME280;10644;48.834;10.088;2023-04-27T01:45:20;96723.28;;;13.06;45.56
20971;BME280;10644;48.834;10.088;2023-04-27T01:47:45;96735.75;;;13.12;45.62
20971;BME280;10644;48.834;10.088;2023-04-27T01:50:11;96724.03;;;13.08;45.47
20971;BME280;10644;48.834;10.088;2023-04-27T01:52:36;96728.09;;;12.98;45.92
20971;BME280;10644;48.834;10.088;2023-04-27T01:55:02;96718.41;;;12.88;46.46
20971;BME280;10644;48.834;10.088;2023-04-27T01:57:30;96735.59;;;12.87;46.38
20971;BME280;10644;48.834;10.088;2023-04-27T01:59:55;96726.34;;;12.85;46.68
20971;BME280;10644;48.834;10.088;2023-04-27T02:02:21;96732.72;;;12.65;47.35
20971;BME280;10644;48.834;10.088;2023-04-27T02:04:46;96737.59;;;12.56;47.64
20971;BME280;10644;48.834;10.088;2023-04-27T02:07:11;96733.66;;;12.36;47.72
20971;BME280;10644;48.834;10.088;2023-04-27T02:09:37;96723.19;;;12.39;47.80
20971;BME280;10644;48.834;10.088;2023-04-27T02:12:02;96734.38;;;12.52;47.96
20971;BME280;10644;48.834;10.088;2023-04-27T02:14:28;96736.47;;;12.60;48.21
20971;BME280;10644;48.834;10.088;2023-04-27T02:16:53;96735.09;;;12.54;48.33
20971;BME280;10644;48.834;10.088;2023-04-27T02:19:19;96742.81;;;12.54;48.09
20971;BME280;10644;48.834;10.088;2023-04-27T02:21:44;96743.56;;;12.42;48.67
20971;BME280;10644;48.834;10.088;2023-04-27T02:24:10;96737.22;;;12.48;48.51
20971;BME280;10644;48.834;10.088;2023-04-27T02:26:35;96749.78;;;12.52;48.38
20971;BME280;10644;48.834;10.088;2023-04-27T02:29:00;96749.06;;;12.64;48.28
20971;BME280;10644;48.834;10.088;2023-04-27T02:31:27;96734.00;;;12.58;48.73
20971;BME280;10644;48.834;10.088;2023-04-27T02:33:53;96759.06;;;12.55;48.88
20971;BME280;10644;48.834;10.088;2023-04-27T02:36:18;96742.81;;;12.54;48.50
20971;BME280;10644;48.834;10.088;2023-04-27T02:38:44;96751.41;;;12.67;48.83
20971;BME280;10644;48.834;10.088;2023-04-27T02:41:09;96759.03;;;12.69;48.42
20971;BME280;10644;48.834;10.088;2023-04-27T02:43:35;96738.47;;;12.69;48.48
20971;BME280;10644;48.834;10.088;2023-04-27T02:46:04;96737.00;;;12.65;47.49
20971;BME280;10644;48.834;10.088;2023-04-27T02:48:30;96738.47;;;12.69;46.71
20971;BME280;10644;48.834;10.088;2023-04-27T02:50:55;96721.53;;;12.38;46.94
20971;BME280;10644;48.834;10.088;2023-04-27T02:53:21;96744.56;;;12.40;46.59
20971;BME280;10644;48.834;10.088;2023-04-27T02:55:47;96732.19;;;12.32;47.08
20971;BME280;10644;48.834;10.088;2023-04-27T02:58:13;96735.00;;;12.14;47.40
20971;BME280;10644;48.834;10.088;2023-04-27T03:00:39;96740.41;;;12.09;47.92
20971;BME280;10644;48.834;10.088;2023-04-27T03:03:07;96750.06;;;12.20;47.92
20971;BME280;10644;48.834;10.088;2023-04-27T03:05:34;96752.34;;;12.10;48.22
20971;BME280;10644;48.834;10.088;2023-04-27T03:08:00;96751.78;;;12.05;48.41
20971;BME280;10644;48.834;10.088;2023-04-27T03:10:25;96750.41;;;12.14;47.94
20971;BME280;10644;48.834;10.088;2023-04-27T03:12:51;96743.91;;;12.22;48.38
20971;BME280;10644;48.834;10.088;2023-04-27T03:15:19;96745.84;;;12.19;48.71
20971;BME280;10644;48.834;10.088;2023-04-27T03:17:45;96756.75;;;12.22;48.67
20971;BME280;10644;48.834;10.088;2023-04-27T03:20:13;96760.63;;;12.29;48.95
20971;BME280;10644;48.834;10.088;2023-04-27T03:22:39;96763.16;;;12.15;48.41
20971;BME280;10644;48.834;10.088;2023-04-27T03:25:05;96772.16;;;12.08;47.96
20971;BME280;10644;48.834;10.088;2023-04-27T03:27:31;96769.47;;;11.96;48.24
20971;BME280;10644;48.834;10.088;2023-04-27T03:29:56;96752.63;;;12.06;47.86
20971;BME280;10644;48.834;10.088;2023-04-27T03:32:25;96762.09;;;12.19;47.39
20971;BME280;10644;48.834;10.088;2023-04-27T03:34:50;96758.22;;;12.26;47.49
20971;BME280;10644;48.834;10.088;2023-04-27T03:37:16;96762.97;;;12.04;47.59
20971;BME280;10644;48.834;10.088;2023-04-27T03:39:41;96755.63;;;11.84;47.33
20971;BME280;10644;48.834;10.088;2023-04-27T03:42:08;96761.19;;;11.77;47.58
20971;BME280;10644;48.834;10.088;2023-04-27T03:44:36;96754.13;;;11.80;47.70
20971;BME280;10644;48.834;10.088;2023-04-27T03:47:01;96772.31;;;11.91;47.42
20971;BME280;10644;48.834;10.088;2023-04-27T03:49:28;96770.47;;;11.93;47.58
20971;BME280;10644;48.834;10.088;2023-04-27T03:51:53;96763.16;;;12.01;47.58
20971;BME280;10644;48.834;10.088;2023-04-27T03:54:18;96764.44;;;12.08;47.33
20971;BME280;10644;48.834;10.088;2023-04-27T03:56:44;96767.22;;;12.19;47.29
20971;BME280;10644;48.834;10.088;2023-04-27T03:59:09;96768.22;;;12.31;47.21
20971;BME280;10644;48.834;10.088;2023-04-27T04:01:35;96759.59;;;12.32;47.03
20971;BME280;10644;48.834;10.088;2023-04-27T04:04:01;96760.78;;;12.40;46.97
20971;BME280;10644;48.834;10.088;2023-04-27T04:06:26;96764.28;;;12.39;46.58
20971;BME280;10644;48.834;10.088;2023-04-27T04:08:52;96764.47;;;12.36;47.13
20971;BME280;10644;48.834;10.088;2023-04-27T04:11:20;96762.91;;;12.34;47.04
20971;BME280;10644;48.834;10.088;2023-04-27T04:13:51;96772.34;;;12.19;48.05
20971;BME280;10644;48.834;10.088;2023-04-27T04:16:19;96762.72;;;12.23;47.75
20971;BME280;10644;48.834;10.088;2023-04-27T04:18:44;96773.09;;;12.35;47.76
20971;BME280;10644;48.834;10.088;2023-04-27T04:21:10;96770.16;;;12.41;47.56
20971;BME280;10644;48.834;10.088;2023-04-27T04:23:36;96771.53;;;12.47;47.18
20971;BME280;10644;48.834;10.088;2023-04-27T04:26:02;96783.53;;;12.32;48.63
20971;BME280;10644;48.834;10.088;2023-04-27T04:28:27;96798.06;;;12.47;48.67
20971;BME280;10644;48.834;10.088;2023-04-27T04:30:53;96776.50;;;12.50;48.36
20971;BME280;10644;48.834;10.088;2023-04-27T04:33:18;96776.56;;;12.62;48.52
20971;BME280;10644;48.834;10.088;2023-04-27T04:35:44;96763.34;;;12.40;48.49
20971;BME280;10644;48.834;10.088;2023-04-27T04:38:12;96772.00;;;12.53;48.81
20971;BME280;10644;48.834;10.088;2023-04-27T04:40:39;96754.34;;;12.61;48.69
20971;BME280;10644;48.834;10.088;2023-04-27T04:43:05;96771.41;;;12.62;48.34
20971;BME280;10644;48.834;10.088;2023-04-27T04:45:31;96774.47;;;12.55;48.59
20971;BME280;10644;48.834;10.088;2023-04-27T04:47:56;96778.59;;;12.43;48.84
20971;BME280;10644;48.834;10.088;2023-04-27T04:50:22;96782.38;;;12.38;49.26
20971;BME280;10644;48.834;10.088;2023-04-27T04:52:49;96781.16;;;12.43;49.41
20971;BME280;10644;48.834;10.088;2023-04-27T04:55:15;96776.50;;;12.50;48.91
20971;BME280;10644;48.834;10.088;2023-04-27T04:57:41;96792.34;;;12.56;49.19
20971;BME280;10644;48.834;10.088;2023-04-27T05:00:07;96794.03;;;12.57;49.32
20971;BME280;10644;48.834;10.088;2023-04-27T05:02:36;96792.44;;;12.41;49.37
20971;BME280;10644;48.834;10.088;2023-04-27T05:05:02;96781.34;;;12.40;49.88
20971;BME280;10644;48.834;10.088;2023-04-27T05:07:28;96797.84;;;12.50;48.87
20971;BME280;10644;48.834;10.088;2023-04-27T05:10:23;96784.94;;;12.52;48.51
20971;BME280;10644;48.834;10.088;2023-04-27T05:12:48;96775.66;;;12.49;48.03
20971;BME280;10644;48.834;10.088;2023-04-27T05:15:22;96779.25;;;12.33;47.65
20971;BME280;10644;48.834;10.088;2023-04-27T05:17:57;96782.72;;;12.32;47.74
20971;BME280;10644;48.834;10.088;2023-04-27T05:20:24;96795.28;;;12.22;48.15
20971;BME280;10644;48.834;10.088;2023-04-27T05:22:50;96793.06;;;12.16;48.48
20971;BME280;10644;48.834;10.088;2023-04-27T05:25:15;96785.34;;;12.16;48.64
20971;BME280;10644;48.834;10.088;2023-04-27T05:27:43;96794.34;;;12.23;48.74
20971;BME280;10644;48.834;10.088;2023-04-27T05:30:08;96795.81;;;12.27;48.61
20971;BME280;10644;48.834;10.088;2023-04-27T05:32:35;96789.22;;;12.23;48.06
20971;BME280;10644;48.834;10.088;2023-04-27T05:35:01;96802.56;;;12.44;47.91
20971;BME280;10644;48.834;10.088;2023-04-27T05:37:27;96798.50;;;12.54;47.96
20971;BME280;10644;48.834;10.088;2023-04-27T05:39:52;96791.28;;;12.46;47.99
20971;BME280;10644;48.834;10.088;2023-04-27T05:42:17;96808.13;;;12.50;47.85
20971;BME280;10644;48.834;10.088;2023-04-27T05:44:43;96796.69;;;12.56;47.99
20971;BME280;10644;48.834;10.088;2023-04-27T05:47:08;96799.06;;;12.73;47.24
20971;BME280;10644;48.834;10.088;2023-04-27T05:49:36;96807.97;;;12.81;47.44
20971;BME280;10644;48.834;10.088;2023-04-27T05:52:01;96795.44;;;12.89;47.15
20971;BME280;10644;48.834;10.088;2023-04-27T05:54:28;96799.78;;;13.03;46.68
20971;BME280;10644;48.834;10.088;2023-04-27T05:56:53;96809.59;;;12.96;46.58
20971;BME280;10644;48.834;10.088;2023-04-27T05:59:19;96796.75;;;12.96;46.66
20971;BME280;10644;48.834;10.088;2023-04-27T06:01:44;96799.16;;;12.99;46.57
20971;BME280;10644;48.834;10.088;2023-04-27T06:04:09;96809.50;;;12.70;46.80
20971;BME280;10644;48.834;10.088;2023-04-27T06:06:35;96819.41;;;12.76;47.39
20971;BME280;10644;48.834;10.088;2023-04-27T06:09:01;96809.97;;;12.62;47.80
20971;BME280;10644;48.834;10.088;2023-04-27T06:11:26;96805.13;;;12.44;48.40
20971;BME280;10644;48.834;10.088;2023-04-27T06:13:52;96814.38;;;12.60;47.74
20971;BME280;10644;48.834;10.088;2023-04-27T06:16:18;96812.94;;;12.70;47.98
20971;BME280;10644;48.834;10.088;2023-04-27T06:18:43;96823.00;;;12.87;48.06
20971;BME280;10644;48.834;10.088;2023-04-27T06:21:08;96810.34;;;12.98;47.81
20971;BME280;10644;48.834;10.088;2023-04-27T06:23:34;96820.44;;;13.01;47.14
20971;BME280;10644;48.834;10.088;2023-04-27T06:25:59;96821.53;;;13.11;47.06
20971;BME280;10644;48.834;10.088;2023-04-27T06:28:25;96820.53;;;13.14;46.62
20971;BME280;10644;48.834;10.088;2023-04-27T06:30:52;96833.16;;;13.31;46.65
20971;BME280;10644;48.834;10.088;2023-04-27T06:33:17;96821.84;;;13.33;46.86
20971;BME280;10644;48.834;10.088;2023-04-27T06:35:43;96825.91;;;13.37;45.74
20971;BME280;10644;48.834;10.088;2023-04-27T06:38:09;96827.00;;;13.33;45.69
20971;BME280;10644;48.834;10.088;2023-04-27T06:40:37;96837.22;;;13.21;46.38
20971;BME280;10644;48.834;10.088;2023-04-27T06:43:02;96826.28;;;13.17;45.96
20971;BME280;10644;48.834;10.088;2023-04-27T06:45:28;96827.47;;;13.26;46.44
20971;BME280;10644;48.834;10.088;2023-04-27T06:47:53;96821.94;;;13.32;46.00
20971;BME280;10644;48.834;10.088;2023-04-27T06:50:21;96830.13;;;13.38;45.94
20971;BME280;10644;48.834;10.088;2023-04-27T06:52:48;96818.91;;;13.39;45.40
20971;BME280;10644;48.834;10.088;2023-04-27T06:55:14;96832.25;;;13.58;45.40
20971;BME280;10644;48.834;10.088;2023-04-27T06:57:39;96822.84;;;13.71;45.15
20971;BME280;10644;48.834;10.088;2023-04-27T07:00:05;96838.13;;;13.86;44.50
20971;BME280;10644;48.834;10.088;2023-04-27T07:02:31;96838.13;;;13.86;44.87
20971;BME280;10644;48.834;10.088;2023-04-27T07:04:56;96825.31;;;13.73;44.20
20971;BME280;10644;48.834;10.088;2023-04-27T07:07:21;96834.22;;;13.81;43.66
20971;BME280;10644;48.834;10.088;2023-04-27T07:09:46;96833.00;;;13.99;44.05
20971;BME280;10644;48.834;10.088;2023-04-27T07:12:12;96822.09;;;14.08;42.91
20971;BME280;10644;48.834;10.088;2023-04-27T07:14:37;96833.81;;;14.26;42.94
20971;BME280;10644;48.834;10.088;2023-04-27T07:17:02;96826.81;;;14.40;42.68
20971;BME280;10644;48.834;10.088;2023-04-27T07:19:28;96822.16;;;14.58;41.16
20971;BME280;10644;48.834;10.088;2023-04-27T07:21:53;96809.59;;;14.53;40.16
20971;BME280;10644;48.834;10.088;2023-04-27T07:24:18;96821.13;;;14.60;40.33
20971;BME280;10644;48.834;10.088;2023-04-27T07:26:44;96830.41;;;14.63;40.02
20971;BME280;10644;48.834;10.088;2023-04-27T07:29:10;96826.28;;;14.48;39.72
20971;BME280;10644;48.834;10.088;2023-04-27T07:31:36;96823.84;;;14.46;39.69
20971;BME280;10644;48.834;10.088;2023-04-27T07:34:04;96835.38;;;14.53;39.60
20971;BME280;10644;48.834;10.088;2023-04-27T07:36:30;96836.59;;;14.48;39.60
20971;BME280;10644;48.834;10.088;2023-04-27T07:38:56;96834.94;;;14.47;39.96
20971;BME280;10644;48.834;10.088;2023-04-27T07:41:22;96823.41;;;14.65;40.16
20971;BME280;10644;48.834;10.088;2023-04-27T07:43:50;96822.38;;;14.80;40.11
20971;BME280;10644;48.834;10.088;2023-04-27T07:46:16;96835.56;;;14.63;39.53
20971;BME280;10644;48.834;10.088;2023-04-27T07:48:42;96832.06;;;14.64;40.10
20971;BME280;10644;48.834;10.088;2023-04-27T07:51:09;96822.78;;;14.74;39.77
20971;BME280;10644;48.834;10.088;2023-04-27T07:53:34;96827.75;;;14.77;39.89
20971;BME280;10644;48.834;10.088;2023-04-27T07:56:00;96828.13;;;14.96;40.42
20971;BME280;10644;48.834;10.088;2023-04-27T07:58:26;96835.53;;;15.13;40.00
20971;BME280;10644;48.834;10.088;2023-04-27T08:00:51;96825.19;;;15.13;40.18
20971;BME280;10644;48.834;10.088;2023-04-27T08:03:19;96820.94;;;15.24;40.07
20971;BME280;10644;48.834;10.088;2023-04-27T08:05:46;96823.75;;;15.34;40.35
20971;BME280;10644;48.834;10.088;2023-04-27T08:08:11;96819.09;;;15.39;39.81
20971;BME280;10644;48.834;10.088;2023-04-27T08:10:37;96827.81;;;15.49;39.75
20971;BME280;10644;48.834;10.088;2023-04-27T08:13:02;96817.22;;;15.64;40.13
20971;BME280;10644;48.834;10.088;2023-04-27T08:15:28;96813.16;;;15.73;40.06
20971;BME280;10644;48.834;10.088;2023-04-27T08:17:53;96822.31;;;15.77;39.42
20971;BME280;10644;48.834;10.088;2023-04-27T08:20:18;96820.13;;;15.83;39.18
20971;BME280;10644;48.834;10.088;2023-04-27T08:22:44;96819.31;;;15.94;39.03
20971;BME280;10644;48.834;10.088;2023-04-27T08:25:09;96823.72;;;16.04;38.79
20971;BME280;10644;48.834;10.088;2023-04-27T08:27:38;96818.00;;;16.12;38.82
20971;BME280;10644;48.834;10.088;2023-04-27T08:30:04;96818.75;;;16.25;38.67
20971;BME280;10644;48.834;10.088;2023-04-27T08:32:31;96826.19;;;16.40;38.51
20971;BME280;10644;48.834;10.088;2023-04-27T08:34:58;96818.00;;;16.12;38.39
20971;BME280;10644;48.834;10.088;2023-04-27T08:37:24;96824.41;;;16.30;38.52
20971;BME280;10644;48.834;10.088;2023-04-27T08:39:49;96816.72;;;16.52;38.27
20971;BME280;10644;48.834;10.088;2023-04-27T08:42:15;96815.53;;;16.67;38.51
20971;BME280;10644;48.834;10.088;2023-04-27T08:44:41;96817.31;;;16.77;37.79
20971;BME280;10644;48.834;10.088;2023-04-27T08:47:07;96815.06;;;16.95;37.92
20971;BME280;10644;48.834;10.088;2023-04-27T08:49:36;96812.25;;;16.98;38.01
20971;BME280;10644;48.834;10.088;2023-04-27T08:52:15;96800.84;;;16.89;37.22
20971;BME280;10644;48.834;10.088;2023-04-27T08:54:41;96804.72;;;16.16;37.93
20971;BME280;10644;48.834;10.088;2023-04-27T08:57:14;96797.59;;;16.31;38.76
20971;BME280;10644;48.834;10.088;2023-04-27T08:59:41;96801.69;;;16.68;38.54
20971;BME280;10644;48.834;10.088;2023-04-27T09:02:18;96788.63;;;16.91;38.14
20971;BME280;10644;48.834;10.088;2023-04-27T09:04:44;96788.25;;;17.07;37.64
20971;BME280;10644;48.834;10.088;2023-04-27T09:07:13;96792.03;;;16.81;37.25
20971;BME280;10644;48.834;10.088;2023-04-27T09:09:42;96791.25;;;16.24;37.95
20971;BME280;10644;48.834;10.088;2023-04-27T09:12:16;96787.44;;;16.06;38.74
20971;BME280;10644;48.834;10.088;2023-04-27T09:15:01;96792.47;;;16.07;39.32
20971;BME280;10644;48.834;10.088;2023-04-27T09:17:31;96789.69;;;16.10;38.90
20971;BME280;10644;48.834;10.088;2023-04-27T09:20:10;96792.84;;;16.14;38.30
20971;BME280;10644;48.834;10.088;2023-04-27T09:25:10;96790.97;;;16.72;38.06
20971;BME280;10644;48.834;10.088;2023-04-27T09:27:37;96786.38;;;17.09;40.01
20971;BME280;10644;48.834;10.088;2023-04-27T09:30:12;96783.97;;;17.39;39.43
20971;BME280;10644;48.834;10.088;2023-04-27T09:32:37;96775.97;;;17.53;36.89
20971;BME280;10644;48.834;10.088;2023-04-27T09:35:05;96772.22;;;17.77;36.63
20971;BME280;10644;48.834;10.088;2023-04-27T09:37:41;96771.97;;;18.01;35.82
20971;BME280;10644;48.834;10.088;2023-04-27T09:40:06;96768.97;;;17.85;35.53
20971;BME280;10644;48.834;10.088;2023-04-27T09:42:32;96777.53;;;17.96;35.56
20971;BME280;10644;48.834;10.088;2023-04-27T09:45:00;96769.38;;;18.01;35.78
20971;BME280;10644;48.834;10.088;2023-04-27T09:47:26;96764.03;;;18.34;35.52
20971;BME280;10644;48.834;10.088;2023-04-27T09:49:52;96768.38;;;18.33;35.25
20971;BME280;10644;48.834;10.088;2023-04-27T09:52:18;96765.22;;;18.09;35.39
20971;BME280;10644;48.834;10.088;2023-04-27T09:54:43;96752.50;;;17.86;35.63
20971;BME280;10644;48.834;10.088;2023-04-27T09:57:25;96764.00;;;17.93;35.39
20971;BME280;10644;48.834;10.088;2023-04-27T10:00:14;96765.72;;;18.03;35.57
20971;BME280;10644;48.834;10.088;2023-04-27T10:08:33;96769.38;;;18.21;35.04
20971;BME280;10644;48.834;10.088;2023-04-27T10:10:59;96766.66;;;18.23;35.11
20971;BME280;10644;48.834;10.088;2023-04-27T10:13:25;96762.44;;;18.42;34.71
20971;BME280;10644;48.834;10.088;2023-04-27T10:15:53;96769.94;;;18.66;34.53
20971;BME280;10644;48.834;10.088;2023-04-27T10:18:28;96761.13;;;18.78;34.73
20971;BME280;10644;48.834;10.088;2023-04-27T10:20:55;96764.63;;;18.47;34.22
20971;BME280;10644;48.834;10.088;2023-04-27T10:23:26;96762.97;;;18.36;33.87
20971;BME280;10644;48.834;10.088;2023-04-27T10:25:53;96769.22;;;18.34;34.82
20971;BME280;10644;48.834;10.088;2023-04-27T10:28:18;96766.50;;;18.35;33.96
20971;BME280;10644;48.834;10.088;2023-04-27T10:30:49;96761.28;;;18.86;34.03
20971;BME280;10644;48.834;10.088;2023-04-27T10:33:16;96762.56;;;19.01;33.59
20971;BME280;10644;48.834;10.088;2023-04-27T10:35:44;96762.53;;;19.31;32.70
20971;BME280;10644;48.834;10.088;2023-04-27T10:38:19;96757.66;;;18.68;32.84
20971;BME280;10644;48.834;10.088;2023-04-27T10:40:58;96758.53;;;18.78;32.23
20971;BME280;10644;48.834;10.088;2023-04-27T10:43:31;96762.28;;;18.64;33.29
20971;BME280;10644;48.834;10.088;2023-04-27T10:46:08;96755.19;;;18.66;33.33
20971;BME280;10644;48.834;10.088;2023-04-27T10:48:34;96756.59;;;18.80;32.75
20971;BME280;10644;48.834;10.088;2023-04-27T10:51:00;96750.75;;;18.87;32.33
20971;BME280;10644;48.834;10.088;2023-04-27T10:53:33;96759.19;;;19.19;33.20
20971;BME280;10644;48.834;10.088;2023-04-27T10:55:58;96741.78;;;19.50;33.99
20971;BME280;10644;48.834;10.088;2023-04-27T10:58:24;96744.50;;;19.58;32.90
20971;BME280;10644;48.834;10.088;2023-04-27T11:00:49;96743.97;;;19.54;32.93
20971;BME280;10644;48.834;10.088;2023-04-27T11:05:43;96749.16;;;20.02;31.83
20971;BME280;10644;48.834;10.088;2023-04-27T11:08:11;96747.91;;;20.25;32.42
20971;BME280;10644;48.834;10.088;2023-04-27T11:10:46;96748.44;;;20.38;32.62
20971;BME280;10644;48.834;10.088;2023-04-27T11:13:16;96746.75;;;20.56;31.67
20971;BME280;10644;48.834;10.088;2023-04-27T11:18:11;96738.22;;;21.00;30.80
20971;BME280;10644;48.834;10.088;2023-04-27T11:20:36;96744.69;;;21.23;31.12
20971;BME280;10644;48.834;10.088;2023-04-27T11:23:02;96739.31;;;20.97;30.79
20971;BME280;10644;48.834;10.088;2023-04-27T11:25:27;96737.69;;;20.60;31.14
20971;BME280;10644;48.834;10.088;2023-04-27T11:27:53;96749.34;;;20.92;30.79
20971;BME280;10644;48.834;10.088;2023-04-27T11:30:19;96737.81;;;21.22;30.83
20971;BME280;10644;48.834;10.088;2023-04-27T11:32:46;96738.53;;;20.97;30.66
20971;BME280;10644;48.834;10.088;2023-04-27T11:35:12;96737.47;;;21.34;30.87
20971;BME280;10644;48.834;10.088;2023-04-27T11:37:38;96735.22;;;21.22;30.65
20971;BME280;10644;48.834;10.088;2023-04-27T11:40:03;96733.91;;;21.35;30.48
20971;BME280;10644;48.834;10.088;2023-04-27T11:42:29;96728.38;;;21.21;30.71
20971;BME280;10644;48.834;10.088;2023-04-27T11:47:21;96722.81;;;21.51;30.86
20971;BME280;10644;48.834;10.088;2023-04-27T11:49:49;96737.59;;;21.95;30.85
20971;BME280;10644;48.834;10.088;2023-04-27T11:52:15;96722.13;;;21.76;29.96
20971;BME280;10644;48.834;10.088;2023-04-27T11:54:50;96726.63;;;21.56;31.21
20971;BME280;10644;48.834;10.088;2023-04-27T11:57:22;96719.41;;;21.68;30.16
20971;BME280;10644;48.834;10.088;2023-04-27T11:59:49;96718.25;;;21.80;30.27
20971;BME280;10644;48.834;10.088;2023-04-27T12:02:14;96722.63;;;21.97;29.53
20971;BME280;10644;48.834;10.088;2023-04-27T12:04:41;96713.75;;;21.90;29.91
20971;BME280;10644;48.834;10.088;2023-04-27T12:07:09;96727.75;;;21.89;29.08
20971;BME280;10644;48.834;10.088;2023-04-27T12:09:36;96726.81;;;21.72;29.50
20971;BME280;10644;48.834;10.088;2023-04-27T12:12:01;96726.06;;;21.80;30.11
20971;BME280;10644;48.834;10.088;2023-04-27T12:14:27;96726.72;;;21.82;29.47
20971;BME280;10644;48.834;10.088;2023-04-27T12:16:52;96728.06;;;21.86;29.74
20971;BME280;10644;48.834;10.088;2023-04-27T12:19:17;96716.63;;;22.04;29.21
20971;BME280;10644;48.834;10.088;2023-04-27T12:21:43;96715.50;;;22.50;28.55
20971;BME280;10644;48.834;10.088;2023-04-27T12:24:08;96719.28;;;22.89;28.83
20971;BME280;10644;48.834;10.088;2023-04-27T12:26:39;96728.53;;;22.75;28.55
20971;BME280;10644;48.834;10.088;2023-04-27T12:29:06;96719.47;;;22.62;28.66
20971;BME280;10644;48.834;10.088;2023-04-27T12:31:32;96717.47;;;22.30;28.74
20971;BME280;10644;48.834;10.088;2023-04-27T12:33:58;96719.06;;;22.23;28.34
20971;BME280;10644;48.834;10.088;2023-04-27T12:36:23;96724.13;;;21.82;29.35
20971;BME280;10644;48.834;10.088;2023-04-27T12:38:49;96722.72;;;21.70;29.15
20971;BME280;10644;48.834;10.088;2023-04-27T12:41:14;96720.09;;;22.13;28.59
20971;BME280;10644;48.834;10.088;2023-04-27T12:43:42;96709.16;;;22.52;28.58
20971;BME280;10644;48.834;10.088;2023-04-27T12:46:09;96719.00;;;23.00;26.74
20971;BME280;10644;48.834;10.088;2023-04-27T12:48:35;96705.78;;;23.09;26.76
20971;BME280;10644;48.834;10.088;2023-04-27T12:51:01;96720.63;;;22.93;27.04
20971;BME280;10644;48.834;10.088;2023-04-27T12:53:27;96709.75;;;22.72;27.55
20971;BME280;10644;48.834;10.088;2023-04-27T12:55:52;96715.94;;;22.71;27.91
20971;BME280;10644;48.834;10.088;2023-04-27T12:58:17;96714.19;;;22.79;27.73
20971;BME280;10644;48.834;10.088;2023-04-27T13:00:43;96724.97;;;23.18;27.51
20971;BME280;10644;48.834;10.088;2023-04-27T13:03:09;96714.47;;;23.10;26.67